ACA1196 CYVR-LTFM
Flight info
| Callsign | ACA1196 |
|---|---|
| Flight time | N/A |
| Altitude | 37000 |
| Route | WALUP DCT HIDIN DCT IKPAM DCT CALCI DCT ZF DCT BOTER DCT CB DCT 71N00 DCT 74N090W DCT 7680N/M083F370 DCT GIRIN DCT 7860N DCT 78N050W DCT 7840N DCT 7620N DCT H7202/N0487F370 DCT 70N005E DCT OGPAR DCT SEGKA DCT DETMU DCT BENKA DCT LUMAX DCT DOKOT DCT IZWEW/K0893F370 DCT VASOK DCT SOLNU/N0478F370 DCT KENUX DCT RIXEN |
| Aircraft | B77L/H-SDE1E2E3FGHIJ2J3J4J5M1RWXY/LB1D1 |
Departure
| Time | 2026-05-08 04:14 |
|---|---|
| Airport | Vancouver International Airport (CYVR) |
Arrival
| Time | N/A |
|---|---|
| Airport | İstanbul Airport (LTFM) |
| Time | Latitude | Longitude | Altitude | Speed | Heading |
|---|---|---|---|---|---|
| 2026-05-08 03:21 | 49.19805 | -123.17671 | 27 ft | 0 kts | 181° |
| 2026-05-08 03:31 | 49.19806 | -123.17671 | 27 ft | 0 kts | 181° |
| 2026-05-08 03:51 | 49.19807 | -123.17671 | 27 ft | 0 kts | 181° |
| 2026-05-08 03:55 | 49.19827 | -123.17669 | 26 ft | 4 kts | 185° |
| 2026-05-08 03:55 | 49.19844 | -123.17666 | 26 ft | 4 kts | 189° |
| 2026-05-08 03:55 | 49.19871 | -123.17658 | 26 ft | 4 kts | 196° |
| 2026-05-08 03:56 | 49.19896 | -123.17644 | 25 ft | 4 kts | 209° |
| 2026-05-08 03:56 | 49.19916 | -123.17620 | 26 ft | 4 kts | 246° |
| 2026-05-08 03:56 | 49.19919 | -123.17604 | 26 ft | 3 kts | 279° |
| 2026-05-08 04:00 | 49.19919 | -123.17603 | 27 ft | 0 kts | 279° |
| 2026-05-08 04:00 | 49.19920 | -123.17610 | 27 ft | 3 kts | 279° |
| 2026-05-08 04:00 | 49.19927 | -123.17684 | 27 ft | 11 kts | 279° |
| 2026-05-08 04:01 | 49.19943 | -123.17818 | 27 ft | 14 kts | 283° |
| 2026-05-08 04:01 | 49.19976 | -123.17960 | 27 ft | 14 kts | 292° |
| 2026-05-08 04:01 | 49.20004 | -123.18105 | 27 ft | 14 kts | 283° |
| 2026-05-08 04:01 | 49.20021 | -123.18254 | 27 ft | 14 kts | 279° |
| 2026-05-08 04:02 | 49.20038 | -123.18404 | 27 ft | 14 kts | 279° |
| 2026-05-08 04:02 | 49.20003 | -123.18528 | 27 ft | 14 kts | 200° |
| 2026-05-08 04:02 | 49.19902 | -123.18559 | 27 ft | 16 kts | 189° |
| 2026-05-08 04:02 | 49.19773 | -123.18591 | 27 ft | 21 kts | 193° |
| 2026-05-08 04:03 | 49.19641 | -123.18676 | 27 ft | 21 kts | 191° |
| 2026-05-08 04:03 | 49.19630 | -123.18679 | 27 ft | 21 kts | 191° |
| 2026-05-08 04:04 | 49.19579 | -123.18695 | 27 ft | 21 kts | 191° |
| 2026-05-08 04:04 | 49.19495 | -123.18720 | 27 ft | 11 kts | 190° |
| 2026-05-08 04:06 | 49.19451 | -123.18728 | 27 ft | 11 kts | 179° |
| 2026-05-08 04:06 | 49.19378 | -123.18696 | 27 ft | 11 kts | 174° |
| 2026-05-08 04:06 | 49.19301 | -123.18711 | 27 ft | 12 kts | 190° |
| 2026-05-08 04:06 | 49.19204 | -123.18730 | 27 ft | 16 kts | 172° |
| 2026-05-08 04:07 | 49.19108 | -123.18640 | 27 ft | 16 kts | 144° |
| 2026-05-08 04:07 | 49.19016 | -123.18536 | 27 ft | 16 kts | 143° |
| 2026-05-08 04:07 | 49.18948 | -123.18403 | 27 ft | 16 kts | 103° |
| 2026-05-08 04:07 | 49.18926 | -123.18232 | 27 ft | 16 kts | 100° |
| 2026-05-08 04:08 | 49.18907 | -123.18060 | 27 ft | 16 kts | 98° |
| 2026-05-08 04:08 | 49.18890 | -123.17888 | 27 ft | 16 kts | 98° |
| 2026-05-08 04:08 | 49.18874 | -123.17715 | 27 ft | 16 kts | 98° |
| 2026-05-08 04:08 | 49.18854 | -123.17543 | 27 ft | 16 kts | 101° |
| 2026-05-08 04:09 | 49.18833 | -123.17374 | 27 ft | 16 kts | 100° |
| 2026-05-08 04:09 | 49.18813 | -123.17203 | 27 ft | 16 kts | 100° |
| 2026-05-08 04:09 | 49.18793 | -123.17031 | 27 ft | 16 kts | 100° |
| 2026-05-08 04:09 | 49.18773 | -123.16859 | 27 ft | 16 kts | 100° |
| 2026-05-08 04:10 | 49.18754 | -123.16687 | 27 ft | 16 kts | 99° |
| 2026-05-08 04:10 | 49.18734 | -123.16515 | 27 ft | 16 kts | 99° |
| 2026-05-08 04:10 | 49.18714 | -123.16344 | 27 ft | 16 kts | 105° |
| 2026-05-08 04:10 | 49.18676 | -123.16249 | 26 ft | 0 kts | 131° |
| 2026-05-08 04:11 | 49.18668 | -123.16236 | 28 ft | 7 kts | 131° |
| 2026-05-08 04:11 | 49.18631 | -123.16108 | 28 ft | 9 kts | 104° |
| 2026-05-08 04:11 | 49.18612 | -123.16056 | 28 ft | 0 kts | 127° |
| 2026-05-08 04:12 | 49.18609 | -123.16052 | 28 ft | 4 kts | 133° |
| 2026-05-08 04:12 | 49.18512 | -123.16047 | 29 ft | 21 kts | 188° |
| 2026-05-08 04:12 | 49.18494 | -123.16055 | 28 ft | 1 kts | 202° |
| 2026-05-08 04:12 | 49.18482 | -123.16078 | 29 ft | 4 kts | 246° |
| 2026-05-08 04:13 | 49.18480 | -123.16143 | 28 ft | 9 kts | 275° |
| 2026-05-08 04:13 | 49.18533 | -123.16653 | 28 ft | 96 kts | 281° |
| 2026-05-08 04:13 | 49.18698 | -123.18039 | 28 ft | 162 kts | 281° |
| 2026-05-08 04:13 | 49.18934 | -123.19871 | 159 ft | 187 kts | 281° |
| 2026-05-08 04:14 | 49.19210 | -123.21917 | 458 ft | 202 kts | 283° |
| 2026-05-08 04:14 | 49.19558 | -123.23980 | 1091 ft | 199 kts | 284° |
| 2026-05-08 04:14 | 49.19867 | -123.26028 | 1676 ft | 199 kts | 275° |
| 2026-05-08 04:14 | 49.19975 | -123.28233 | 1902 ft | 221 kts | 271° |
| 2026-05-08 04:15 | 49.20060 | -123.30698 | 2135 ft | 245 kts | 272° |
| 2026-05-08 04:15 | 49.20172 | -123.33373 | 2626 ft | 257 kts | 273° |
| 2026-05-08 04:15 | 49.20352 | -123.36122 | 3356 ft | 262 kts | 277° |
| 2026-05-08 04:15 | 49.20603 | -123.38899 | 4109 ft | 265 kts | 278° |
| 2026-05-08 04:16 | 49.20882 | -123.41697 | 4896 ft | 267 kts | 279° |
| 2026-05-08 04:16 | 49.21166 | -123.44515 | 5629 ft | 270 kts | 278° |
| 2026-05-08 04:16 | 49.21428 | -123.47392 | 6280 ft | 277 kts | 276° |
| 2026-05-08 04:16 | 49.21648 | -123.50304 | 6897 ft | 282 kts | 275° |
| 2026-05-08 04:17 | 49.21846 | -123.53287 | 7616 ft | 283 kts | 274° |
| 2026-05-08 04:17 | 49.21993 | -123.56295 | 8298 ft | 285 kts | 272° |
| 2026-05-08 04:17 | 49.22164 | -123.59316 | 8997 ft | 284 kts | 278° |
| 2026-05-08 04:17 | 49.22860 | -123.62151 | 9438 ft | 293 kts | 308° |
| 2026-05-08 04:18 | 49.24476 | -123.64042 | 10020 ft | 299 kts | 340° |
| 2026-05-08 04:18 | 49.26550 | -123.64437 | 10511 ft | 312 kts | 6° |
| 2026-05-08 04:18 | 49.28749 | -123.63794 | 10579 ft | 332 kts | 16° |
| 2026-05-08 04:18 | 49.31008 | -123.62664 | 10723 ft | 351 kts | 20° |
| 2026-05-08 04:19 | 49.33320 | -123.61325 | 10888 ft | 370 kts | 21° |
| 2026-05-08 04:19 | 49.35756 | -123.59858 | 11230 ft | 382 kts | 21° |
| 2026-05-08 04:19 | 49.38254 | -123.58347 | 11769 ft | 390 kts | 21° |
| 2026-05-08 04:19 | 49.40794 | -123.56823 | 12448 ft | 394 kts | 21° |
| 2026-05-08 04:20 | 49.43358 | -123.55301 | 13215 ft | 397 kts | 21° |
| 2026-05-08 04:20 | 49.45946 | -123.53779 | 13948 ft | 400 kts | 20° |
| 2026-05-08 04:20 | 49.48568 | -123.52247 | 14557 ft | 405 kts | 20° |
| 2026-05-08 04:20 | 49.51223 | -123.50702 | 15154 ft | 410 kts | 20° |
| 2026-05-08 04:21 | 49.53905 | -123.49144 | 15752 ft | 415 kts | 20° |
| 2026-05-08 04:21 | 49.56620 | -123.47569 | 16354 ft | 419 kts | 20° |
| 2026-05-08 04:21 | 49.59365 | -123.45974 | 16923 ft | 424 kts | 20° |
| 2026-05-08 04:21 | 49.62136 | -123.44364 | 17524 ft | 428 kts | 20° |
| 2026-05-08 04:22 | 49.64902 | -123.42756 | 18084 ft | 433 kts | 20° |
| 2026-05-08 04:22 | 49.67736 | -123.41106 | 18601 ft | 438 kts | 20° |
| 2026-05-08 04:22 | 49.70595 | -123.39440 | 19123 ft | 441 kts | 20° |
| 2026-05-08 04:22 | 49.73475 | -123.37761 | 19637 ft | 444 kts | 19° |
| 2026-05-08 04:23 | 49.76372 | -123.36067 | 20181 ft | 446 kts | 19° |
| 2026-05-08 04:23 | 49.79286 | -123.34358 | 20700 ft | 450 kts | 19° |
| 2026-05-08 04:23 | 49.82227 | -123.32633 | 21202 ft | 454 kts | 19° |
| 2026-05-08 04:23 | 49.85191 | -123.30893 | 21698 ft | 457 kts | 19° |
| 2026-05-08 04:24 | 49.88175 | -123.29143 | 22178 ft | 460 kts | 19° |
| 2026-05-08 04:24 | 49.91137 | -123.27402 | 22658 ft | 463 kts | 19° |
| 2026-05-08 04:24 | 49.94163 | -123.25615 | 23154 ft | 467 kts | 19° |
| 2026-05-08 04:24 | 49.97207 | -123.23816 | 23623 ft | 470 kts | 18° |
| 2026-05-08 04:25 | 50.00274 | -123.22003 | 24034 ft | 473 kts | 18° |
| 2026-05-08 04:25 | 50.03355 | -123.20190 | 24424 ft | 475 kts | 18° |
| 2026-05-08 04:25 | 50.06453 | -123.18355 | 24841 ft | 477 kts | 18° |
| 2026-05-08 04:25 | 50.09558 | -123.16506 | 25281 ft | 479 kts | 18° |
| 2026-05-08 04:26 | 50.12678 | -123.14649 | 25697 ft | 482 kts | 18° |
| 2026-05-08 04:26 | 50.15772 | -123.12807 | 26083 ft | 484 kts | 18° |
| 2026-05-08 04:26 | 50.18932 | -123.10925 | 26460 ft | 487 kts | 18° |
| 2026-05-08 04:26 | 50.22101 | -123.09034 | 26858 ft | 489 kts | 18° |
| 2026-05-08 04:27 | 50.25285 | -123.07132 | 27241 ft | 491 kts | 18° |
| 2026-05-08 04:27 | 50.28487 | -123.05217 | 27612 ft | 493 kts | 18° |
| 2026-05-08 04:27 | 50.31679 | -123.03301 | 28145 ft | 491 kts | 18° |
| 2026-05-08 04:27 | 50.34868 | -123.01384 | 28654 ft | 490 kts | 17° |
| 2026-05-08 04:28 | 50.38063 | -122.99464 | 28976 ft | 495 kts | 17° |
| 2026-05-08 04:28 | 50.41301 | -122.97520 | 29062 ft | 500 kts | 17° |
| 2026-05-08 04:28 | 50.44510 | -122.95588 | 29387 ft | 501 kts | 17° |
| 2026-05-08 04:28 | 50.47763 | -122.93627 | 29725 ft | 501 kts | 17° |
| 2026-05-08 04:29 | 50.51011 | -122.91658 | 30117 ft | 500 kts | 17° |
| 2026-05-08 04:29 | 50.54256 | -122.89686 | 30466 ft | 498 kts | 17° |
| 2026-05-08 04:29 | 50.57487 | -122.87727 | 30787 ft | 497 kts | 17° |
| 2026-05-08 04:29 | 50.60700 | -122.85772 | 31241 ft | 493 kts | 17° |
| 2026-05-08 04:30 | 50.63891 | -122.83829 | 31551 ft | 492 kts | 16° |
| 2026-05-08 04:30 | 50.67085 | -122.81884 | 31741 ft | 494 kts | 16° |
| 2026-05-08 04:30 | 50.70304 | -122.79924 | 31856 ft | 497 kts | 16° |
| 2026-05-08 04:30 | 50.73493 | -122.77981 | 31977 ft | 499 kts | 16° |
| 2026-05-08 04:31 | 50.76736 | -122.76000 | 32161 ft | 501 kts | 16° |
| 2026-05-08 04:31 | 50.79992 | -122.74006 | 32303 ft | 503 kts | 17° |
| 2026-05-08 04:31 | 50.83259 | -122.72003 | 32405 ft | 505 kts | 17° |
| 2026-05-08 04:31 | 50.86537 | -122.69989 | 32553 ft | 506 kts | 16° |
| 2026-05-08 04:32 | 50.89814 | -122.67973 | 32770 ft | 505 kts | 16° |
| 2026-05-08 04:32 | 50.93088 | -122.65952 | 32898 ft | 506 kts | 16° |
| 2026-05-08 04:32 | 50.99642 | -122.61900 | 32993 ft | 510 kts | 16° |
| 2026-05-08 04:33 | 51.06250 | -122.57804 | 32988 ft | 509 kts | 16° |
| 2026-05-08 04:33 | 51.12838 | -122.53710 | 32975 ft | 508 kts | 16° |
| 2026-05-08 04:34 | 51.19411 | -122.49609 | 32981 ft | 507 kts | 16° |
| 2026-05-08 04:34 | 51.25964 | -122.45509 | 32984 ft | 506 kts | 16° |
| 2026-05-08 04:35 | 51.32460 | -122.41435 | 32991 ft | 505 kts | 16° |
| 2026-05-08 04:35 | 51.38994 | -122.37323 | 32992 ft | 504 kts | 16° |
| 2026-05-08 04:36 | 51.45522 | -122.33204 | 33015 ft | 504 kts | 16° |
| 2026-05-08 04:36 | 51.52052 | -122.29070 | 32994 ft | 504 kts | 16° |
| 2026-05-08 04:37 | 51.58526 | -122.24957 | 33000 ft | 503 kts | 16° |
| 2026-05-08 04:37 | 51.65035 | -122.20811 | 32994 ft | 503 kts | 17° |
| 2026-05-08 04:38 | 51.71535 | -122.16658 | 33006 ft | 502 kts | 17° |
| 2026-05-08 04:38 | 51.78020 | -122.12501 | 33012 ft | 501 kts | 16° |
| 2026-05-08 04:39 | 51.84452 | -122.08365 | 33005 ft | 500 kts | 16° |
| 2026-05-08 04:39 | 51.90913 | -122.04197 | 33011 ft | 499 kts | 16° |
| 2026-05-08 04:40 | 51.97364 | -122.00024 | 33022 ft | 499 kts | 16° |
| 2026-05-08 04:40 | 52.03815 | -121.95838 | 33005 ft | 499 kts | 16° |
| 2026-05-08 04:41 | 52.10216 | -121.91672 | 32991 ft | 499 kts | 16° |
| 2026-05-08 04:41 | 52.16654 | -121.87466 | 33007 ft | 498 kts | 16° |
| 2026-05-08 04:42 | 52.23085 | -121.83252 | 33025 ft | 498 kts | 16° |
| 2026-05-08 04:42 | 52.29509 | -121.79032 | 33018 ft | 497 kts | 16° |
| 2026-05-08 04:43 | 52.35886 | -121.74828 | 33025 ft | 497 kts | 15° |
| 2026-05-08 04:43 | 52.42293 | -121.70592 | 33021 ft | 496 kts | 15° |
| 2026-05-08 04:44 | 52.48687 | -121.66350 | 33018 ft | 495 kts | 15° |
| 2026-05-08 04:44 | 52.55076 | -121.62098 | 33024 ft | 495 kts | 16° |
| 2026-05-08 04:45 | 52.61456 | -121.57839 | 33025 ft | 495 kts | 16° |
| 2026-05-08 04:45 | 52.67803 | -121.53592 | 33040 ft | 496 kts | 15° |
| 2026-05-08 04:46 | 52.74213 | -121.49287 | 33033 ft | 498 kts | 15° |
| 2026-05-08 04:46 | 52.80631 | -121.44960 | 33034 ft | 499 kts | 15° |
| 2026-05-08 04:47 | 52.87072 | -121.40606 | 33038 ft | 501 kts | 15° |
| 2026-05-08 04:47 | 52.93485 | -121.36258 | 33027 ft | 502 kts | 15° |
| 2026-05-08 04:48 | 52.99957 | -121.31854 | 33017 ft | 504 kts | 15° |
| 2026-05-08 04:48 | 53.06437 | -121.27431 | 33025 ft | 504 kts | 15° |
| 2026-05-08 04:49 | 53.12925 | -121.22985 | 33036 ft | 504 kts | 15° |
| 2026-05-08 04:49 | 53.19356 | -121.18565 | 33025 ft | 504 kts | 15° |
| 2026-05-08 04:50 | 53.25831 | -121.14100 | 33040 ft | 503 kts | 15° |